Track Шведова Ярослав

Time Latitude Longitude Accuracy (66% radius in meters) Altitude (meters) Speed (km/hour) Bearing (degrees) Battery (%) GPS flag
07:39:47 57.205203 60.116947 0 0 0 0 1 delete
07:39:46 57.205200 60.116908 0 0 0 0 1 delete
07:39:45 57.205202 60.116875 0 0 0 0 1 delete
07:39:44 57.205205 60.116835 0 0 0 0 1 delete
07:39:43 57.205212 60.116793 0 0 0 0 1 delete
07:39:42 57.205217 60.116747 0 0 0 0 1 delete
07:39:41 57.205220 60.116702 0 0 0 0 1 delete
07:39:40 57.205222 60.116650 0 0 0 0 1 delete
07:39:39 57.205227 60.116605 0 0 0 0 1 delete
07:39:38 57.205230 60.116558 0 0 0 0 1 delete
07:39:37 57.205235 60.116515 0 0 0 0 1 delete
07:39:36 57.205233 60.116477 0 0 0 0 1 delete
07:39:35 57.205230 60.116428 0 0 0 0 1 delete
07:39:34 57.205230 60.116385 0 0 0 0 1 delete
07:39:33 57.205228 60.116345 0 0 0 0 1 delete
07:39:32 57.205232 60.116305 0 0 0 0 1 delete
07:39:31 57.205232 60.116263 0 0 0 0 1 delete
07:39:30 57.205232 60.116217 0 0 0 0 1 delete
07:39:29 57.205235 60.116167 0 0 0 0 1 delete
07:39:28 57.205240 60.116120 0 0 0 0 1 delete
07:39:27 57.205250 60.116070 0 0 0 0 1 delete
07:39:26 57.205260 60.116015 0 0 0 0 1 delete
07:39:25 57.205268 60.115953 0 0 0 0 1 delete
07:39:24 57.205280 60.115892 0 0 0 0 1 delete
07:39:23 57.205287 60.115830 0 0 0 0 1 delete
07:39:22 57.205295 60.115772 0 0 0 0 1 delete
07:39:21 57.205300 60.115718 0 0 0 0 1 delete
07:39:20 57.205307 60.115673 0 0 0 0 1 delete
07:39:19 57.205318 60.115625 0 0 0 0 1 delete
07:39:18 57.205332 60.115578 0 0 0 0 1 delete
07:39:17 57.205340 60.115532 0 0 0 0 1 delete
07:39:16 57.205340 60.115483 0 0 0 0 1 delete
07:39:15 57.205338 60.115438 0 0 0 0 1 delete
07:39:14 57.205332 60.115397 0 0 0 0 1 delete
07:39:13 57.205323 60.115355 0 0 0 0 1 delete
07:39:12 57.205313 60.115310 0 0 0 0 1 delete
07:39:11 57.205303 60.115265 0 0 0 0 1 delete
07:39:10 57.205292 60.115217 0 0 0 0 1 delete
07:39:09 57.205283 60.115163 0 0 0 0 1 delete
07:39:08 57.205283 60.115108 0 0 0 0 1 delete
07:39:07 57.205275 60.115047 0 0 0 0 1 delete
07:39:06 57.205268 60.114993 0 0 0 0 1 delete
07:39:05 57.205263 60.114933 0 0 0 0 1 delete
07:39:04 57.205252 60.114880 0 0 0 0 1 delete
07:39:03 57.205237 60.114830 0 0 0 0 1 delete
07:39:02 57.205227 60.114783 0 0 0 0 1 delete
07:39:01 57.205222 60.114738 0 0 0 0 1 delete
07:39:00 57.205208 60.114675 0 0 0 0 1 delete
07:38:59 57.205197 60.114615 0 0 0 0 1 delete
07:38:58 57.205175 60.114557 0 0 0 0 1 delete